Terminal Aerodrome Forecast
Issued by NWS Quad Cities IA IL

Home | Current Version | Previous Version | Text Only | Print | Product List | Glossary On
Versions: 1 2 3 4 5 6 7 8 9 10 11 12 13 14 15 16
000
FTUS43 KDVN 180800 AAB
TAFMLI
TAF AMD
KMLI 180846Z 1809/1906 00000KT 2SM BR SCT002
      TEMPO 1809/1812 1/2SM FG VV002
     FM181300 VRB02KT 3SM BR FEW003
     FM181400 10005KT P6SM SKC
     FM181700 12007KT P6SM SCT040=

USA.gov is the U.S. government's official web portal to all federal, state and local government web resources and services.